sensor_id;sensor_type;location;lat;lon;timestamp;P1;durP1;ratioP1;P2;durP2;ratioP2
22652;SDS011;11493;43.344;26.226;2022-09-03T00:00:13;16.75;;;1.20;;
22652;SDS011;11493;43.344;26.226;2022-09-03T00:05:25;9.13;;;1.20;;
22652;SDS011;11493;43.344;26.226;2022-09-03T00:08:09;4.00;;;1.27;;
22652;SDS011;11493;43.344;26.226;2022-09-03T00:10:56;3.13;;;1.17;;
22652;SDS011;11493;43.344;26.226;2022-09-03T00:16:10;4.05;;;0.63;;
22652;SDS011;11493;43.344;26.226;2022-09-03T00:18:44;2.00;;;0.85;;
22652;SDS011;11493;43.344;26.226;2022-09-03T00:21:16;3.53;;;0.82;;
22652;SDS011;11493;43.344;26.226;2022-09-03T00:23:48;1.92;;;0.40;;
22652;SDS011;11493;43.344;26.226;2022-09-03T00:26:19;2.05;;;0.73;;
22652;SDS011;11493;43.344;26.226;2022-09-03T00:29:01;1.58;;;0.50;;
22652;SDS011;11493;43.344;26.226;2022-09-03T00:31:40;0.73;;;0.30;;
22652;SDS011;11493;43.344;26.226;2022-09-03T00:36:53;2.03;;;0.30;;
22652;SDS011;11493;43.344;26.226;2022-09-03T00:39:21;1.10;;;0.30;;
22652;SDS011;11493;43.344;26.226;2022-09-03T00:52:21;0.75;;;0.30;;
22652;SDS011;11493;43.344;26.226;2022-09-03T00:58:02;0.82;;;0.25;;
22652;SDS011;11493;43.344;26.226;2022-09-03T01:01:08;0.45;;;0.25;;
22652;SDS011;11493;43.344;26.226;2022-09-03T01:12:26;0.50;;;0.30;;
22652;SDS011;11493;43.344;26.226;2022-09-03T01:37:33;1.85;;;0.63;;
22652;SDS011;11493;43.344;26.226;2022-09-03T01:40:13;2.17;;;0.30;;
22652;SDS011;11493;43.344;26.226;2022-09-03T01:51:20;0.30;;;0.30;;
22652;SDS011;11493;43.344;26.226;2022-09-03T02:02:40;6.60;;;0.57;;
22652;SDS011;11493;43.344;26.226;2022-09-03T02:05:19;0.30;;;0.30;;
22652;SDS011;11493;43.344;26.226;2022-09-03T02:07:57;0.40;;;0.40;;
22652;SDS011;11493;43.344;26.226;2022-09-03T02:13:13;1.33;;;0.52;;
22652;SDS011;11493;43.344;26.226;2022-09-03T02:15:43;0.90;;;0.60;;
22652;SDS011;11493;43.344;26.226;2022-09-03T02:18:16;1.13;;;0.68;;
22652;SDS011;11493;43.344;26.226;2022-09-03T02:20:46;0.65;;;0.50;;
22652;SDS011;11493;43.344;26.226;2022-09-03T02:23:15;3.38;;;0.70;;
22652;SDS011;11493;43.344;26.226;2022-09-03T02:25:50;2.38;;;0.60;;
22652;SDS011;11493;43.344;26.226;2022-09-03T02:28:21;0.98;;;0.45;;
22652;SDS011;11493;43.344;26.226;2022-09-03T02:30:49;0.50;;;0.50;;
22652;SDS011;11493;43.344;26.226;2022-09-03T02:33:16;0.90;;;0.60;;
22652;SDS011;11493;43.344;26.226;2022-09-03T02:35:44;0.50;;;0.50;;
22652;SDS011;11493;43.344;26.226;2022-09-03T02:38:14;0.50;;;0.50;;
22652;SDS011;11493;43.344;26.226;2022-09-03T02:40:46;1.15;;;0.60;;
22652;SDS011;11493;43.344;26.226;2022-09-03T02:43:16;0.60;;;0.60;;
22652;SDS011;11493;43.344;26.226;2022-09-03T02:45:52;2.65;;;0.60;;
22652;SDS011;11493;43.344;26.226;2022-09-03T02:48:26;0.90;;;0.90;;
22652;SDS011;11493;43.344;26.226;2022-09-03T02:50:53;0.95;;;0.70;;
22652;SDS011;11493;43.344;26.226;2022-09-03T02:53:20;1.10;;;0.70;;
22652;SDS011;11493;43.344;26.226;2022-09-03T02:55:48;1.35;;;0.80;;
22652;SDS011;11493;43.344;26.226;2022-09-03T02:58:15;6.85;;;0.88;;
22652;SDS011;11493;43.344;26.226;2022-09-03T03:00:42;1.10;;;0.70;;
22652;SDS011;11493;43.344;26.226;2022-09-03T03:03:10;0.75;;;0.70;;
22652;SDS011;11493;43.344;26.226;2022-09-03T03:08:09;1.35;;;0.70;;
22652;SDS011;11493;43.344;26.226;2022-09-03T03:10:41;1.00;;;0.80;;
22652;SDS011;11493;43.344;26.226;2022-09-03T03:13:11;1.60;;;0.90;;
22652;SDS011;11493;43.344;26.226;2022-09-03T03:15:38;1.05;;;0.85;;
22652;SDS011;11493;43.344;26.226;2022-09-03T03:18:06;0.90;;;0.90;;
22652;SDS011;11493;43.344;26.226;2022-09-03T03:20:33;1.25;;;1.10;;
22652;SDS011;11493;43.344;26.226;2022-09-03T03:23:00;3.10;;;1.00;;
22652;SDS011;11493;43.344;26.226;2022-09-03T03:25:30;1.33;;;1.20;;
22652;SDS011;11493;43.344;26.226;2022-09-03T03:28:02;2.42;;;1.45;;
22652;SDS011;11493;43.344;26.226;2022-09-03T03:30:31;2.13;;;1.88;;
22652;SDS011;11493;43.344;26.226;2022-09-03T03:32:59;2.72;;;1.75;;
22652;SDS011;11493;43.344;26.226;2022-09-03T03:35:26;3.70;;;1.55;;
22652;SDS011;11493;43.344;26.226;2022-09-03T03:37:56;3.45;;;2.20;;
22652;SDS011;11493;43.344;26.226;2022-09-03T03:40:24;3.47;;;2.15;;
22652;SDS011;11493;43.344;26.226;2022-09-03T03:42:51;3.00;;;2.10;;
22652;SDS011;11493;43.344;26.226;2022-09-03T03:45:19;2.35;;;2.10;;
22652;SDS011;11493;43.344;26.226;2022-09-03T03:47:46;2.60;;;2.40;;
22652;SDS011;11493;43.344;26.226;2022-09-03T03:50:13;3.38;;;2.90;;
22652;SDS011;11493;43.344;26.226;2022-09-03T03:52:43;3.38;;;3.17;;
22652;SDS011;11493;43.344;26.226;2022-09-03T03:55:10;4.72;;;3.60;;
22652;SDS011;11493;43.344;26.226;2022-09-03T04:00:11;5.63;;;4.10;;
22652;SDS011;11493;43.344;26.226;2022-09-03T04:02:42;3.97;;;3.60;;
22652;SDS011;11493;43.344;26.226;2022-09-03T04:05:10;4.95;;;4.03;;
22652;SDS011;11493;43.344;26.226;2022-09-03T04:07:37;4.75;;;4.40;;
22652;SDS011;11493;43.344;26.226;2022-09-03T04:10:04;5.03;;;4.53;;
22652;SDS011;11493;43.344;26.226;2022-09-03T04:12:32;5.65;;;4.60;;
22652;SDS011;11493;43.344;26.226;2022-09-03T04:14:59;6.03;;;5.18;;
22652;SDS011;11493;43.344;26.226;2022-09-03T04:17:29;4.60;;;4.07;;
22652;SDS011;11493;43.344;26.226;2022-09-03T04:19:59;4.47;;;4.07;;
22652;SDS011;11493;43.344;26.226;2022-09-03T04:22:27;4.43;;;4.10;;
22652;SDS011;11493;43.344;26.226;2022-09-03T04:24:55;4.88;;;4.47;;
22652;SDS011;11493;43.344;26.226;2022-09-03T04:27:22;5.82;;;5.25;;
22652;SDS011;11493;43.344;26.226;2022-09-03T04:29:50;12.35;;;5.70;;
22652;SDS011;11493;43.344;26.226;2022-09-03T04:32:18;6.40;;;5.90;;
22652;SDS011;11493;43.344;26.226;2022-09-03T04:35:03;12.15;;;6.47;;
22652;SDS011;11493;43.344;26.226;2022-09-03T04:37:32;7.05;;;6.40;;
22652;SDS011;11493;43.344;26.226;2022-09-03T04:39:59;6.13;;;5.68;;
22652;SDS011;11493;43.344;26.226;2022-09-03T04:42:26;7.03;;;6.28;;
22652;SDS011;11493;43.344;26.226;2022-09-03T04:44:57;6.05;;;4.93;;
22652;SDS011;11493;43.344;26.226;2022-09-03T04:50:28;5.43;;;4.93;;
22652;SDS011;11493;43.344;26.226;2022-09-03T04:52:59;5.60;;;5.20;;
22652;SDS011;11493;43.344;26.226;2022-09-03T04:55:36;5.00;;;4.22;;
22652;SDS011;11493;43.344;26.226;2022-09-03T04:58:04;5.13;;;4.50;;
22652;SDS011;11493;43.344;26.226;2022-09-03T05:00:34;4.95;;;4.63;;
22652;SDS011;11493;43.344;26.226;2022-09-03T05:03:03;5.20;;;4.80;;
22652;SDS011;11493;43.344;26.226;2022-09-03T05:05:31;4.50;;;4.10;;
22652;SDS011;11493;43.344;26.226;2022-09-03T05:08:04;5.82;;;4.95;;
22652;SDS011;11493;43.344;26.226;2022-09-03T05:10:33;9.15;;;5.50;;
22652;SDS011;11493;43.344;26.226;2022-09-03T05:13:02;6.85;;;6.25;;
22652;SDS011;11493;43.344;26.226;2022-09-03T05:15:31;7.40;;;5.88;;
22652;SDS011;11493;43.344;26.226;2022-09-03T05:17:59;6.63;;;6.03;;
22652;SDS011;11493;43.344;26.226;2022-09-03T05:20:28;9.30;;;7.05;;
22652;SDS011;11493;43.344;26.226;2022-09-03T05:23:00;10.60;;;6.45;;
22652;SDS011;11493;43.344;26.226;2022-09-03T05:25:29;9.45;;;7.75;;
22652;SDS011;11493;43.344;26.226;2022-09-03T05:27:58;8.48;;;7.00;;
22652;SDS011;11493;43.344;26.226;2022-09-03T05:30:26;7.40;;;6.70;;
22652;SDS011;11493;43.344;26.226;2022-09-03T05:32:54;8.65;;;7.75;;
22652;SDS011;11493;43.344;26.226;2022-09-03T05:35:22;9.27;;;8.32;;
22652;SDS011;11493;43.344;26.226;2022-09-03T05:37:55;10.30;;;8.77;;
22652;SDS011;11493;43.344;26.226;2022-09-03T05:40:23;10.57;;;7.93;;
22652;SDS011;11493;43.344;26.226;2022-09-03T05:42:54;11.80;;;8.27;;
22652;SDS011;11493;43.344;26.226;2022-09-03T05:45:24;16.27;;;8.95;;
22652;SDS011;11493;43.344;26.226;2022-09-03T05:47:51;14.07;;;8.57;;
22652;SDS011;11493;43.344;26.226;2022-09-03T05:50:19;9.65;;;7.90;;
22652;SDS011;11493;43.344;26.226;2022-09-03T05:52:47;14.07;;;8.95;;
22652;SDS011;11493;43.344;26.226;2022-09-03T05:55:15;14.57;;;9.35;;
22652;SDS011;11493;43.344;26.226;2022-09-03T05:57:51;14.07;;;8.10;;
22652;SDS011;11493;43.344;26.226;2022-09-03T06:00:19;9.65;;;7.95;;
22652;SDS011;11493;43.344;26.226;2022-09-03T06:02:51;13.10;;;7.90;;
22652;SDS011;11493;43.344;26.226;2022-09-03T06:05:19;11.95;;;8.20;;
22652;SDS011;11493;43.344;26.226;2022-09-03T06:07:50;8.85;;;7.95;;
22652;SDS011;11493;43.344;26.226;2022-09-03T06:10:17;9.27;;;8.32;;
22652;SDS011;11493;43.344;26.226;2022-09-03T06:12:51;11.40;;;7.47;;
22652;SDS011;11493;43.344;26.226;2022-09-03T06:15:18;11.68;;;7.35;;
22652;SDS011;11493;43.344;26.226;2022-09-03T06:17:46;8.50;;;7.70;;
22652;SDS011;11493;43.344;26.226;2022-09-03T06:20:14;9.88;;;7.75;;
22652;SDS011;11493;43.344;26.226;2022-09-03T06:22:54;14.43;;;7.82;;
22652;SDS011;11493;43.344;26.226;2022-09-03T06:25:25;12.48;;;8.65;;
22652;SDS011;11493;43.344;26.226;2022-09-03T06:27:54;8.52;;;7.07;;
22652;SDS011;11493;43.344;26.226;2022-09-03T06:30:21;9.15;;;6.47;;
22652;SDS011;11493;43.344;26.226;2022-09-03T06:32:49;6.70;;;6.03;;
22652;SDS011;11493;43.344;26.226;2022-09-03T06:35:20;7.30;;;6.68;;
22652;SDS011;11493;43.344;26.226;2022-09-03T06:37:47;7.93;;;6.45;;
22652;SDS011;11493;43.344;26.226;2022-09-03T06:40:15;6.53;;;5.97;;
22652;SDS011;11493;43.344;26.226;2022-09-03T06:42:55;11.25;;;6.68;;
22652;SDS011;11493;43.344;26.226;2022-09-03T06:45:34;5.32;;;4.82;;
22652;SDS011;11493;43.344;26.226;2022-09-03T06:48:05;6.75;;;4.88;;
22652;SDS011;11493;43.344;26.226;2022-09-03T06:50:35;7.28;;;5.72;;
22652;SDS011;11493;43.344;26.226;2022-09-03T06:53:11;5.43;;;4.90;;
22652;SDS011;11493;43.344;26.226;2022-09-03T06:55:39;6.45;;;4.80;;
22652;SDS011;11493;43.344;26.226;2022-09-03T06:58:09;7.30;;;5.80;;
22652;SDS011;11493;43.344;26.226;2022-09-03T07:00:39;9.50;;;5.45;;
22652;SDS011;11493;43.344;26.226;2022-09-03T07:03:07;5.85;;;5.30;;
22652;SDS011;11493;43.344;26.226;2022-09-03T07:05:34;9.43;;;5.72;;
22652;SDS011;11493;43.344;26.226;2022-09-03T07:08:03;6.10;;;5.30;;
22652;SDS011;11493;43.344;26.226;2022-09-03T07:10:30;6.45;;;5.65;;
22652;SDS011;11493;43.344;26.226;2022-09-03T07:13:00;7.93;;;5.75;;
22652;SDS011;11493;43.344;26.226;2022-09-03T07:15:28;8.05;;;5.88;;
22652;SDS011;11493;43.344;26.226;2022-09-03T07:17:57;6.07;;;5.07;;
22652;SDS011;11493;43.344;26.226;2022-09-03T07:20:25;6.53;;;4.85;;
22652;SDS011;11493;43.344;26.226;2022-09-03T07:22:56;5.22;;;4.25;;
22652;SDS011;11493;43.344;26.226;2022-09-03T07:25:23;3.67;;;3.30;;
22652;SDS011;11493;43.344;26.226;2022-09-03T07:27:52;7.90;;;2.90;;
22652;SDS011;11493;43.344;26.226;2022-09-03T07:30:20;5.68;;;3.72;;
22652;SDS011;11493;43.344;26.226;2022-09-03T07:32:47;3.05;;;2.78;;
22652;SDS011;11493;43.344;26.226;2022-09-03T07:35:23;4.60;;;3.40;;
22652;SDS011;11493;43.344;26.226;2022-09-03T07:37:54;3.63;;;1.95;;
22652;SDS011;11493;43.344;26.226;2022-09-03T07:40:22;2.03;;;1.70;;
22652;SDS011;11493;43.344;26.226;2022-09-03T07:42:55;1.77;;;1.65;;
22652;SDS011;11493;43.344;26.226;2022-09-03T07:45:24;2.80;;;1.95;;
22652;SDS011;11493;43.344;26.226;2022-09-03T07:47:58;2.28;;;1.70;;
22652;SDS011;11493;43.344;26.226;2022-09-03T07:50:26;3.65;;;2.03;;
22652;SDS011;11493;43.344;26.226;2022-09-03T07:52:56;2.10;;;1.90;;
22652;SDS011;11493;43.344;26.226;2022-09-03T07:55:27;2.27;;;2.07;;
22652;SDS011;11493;43.344;26.226;2022-09-03T07:57:55;2.30;;;2.10;;
22652;SDS011;11493;43.344;26.226;2022-09-03T08:00:22;2.78;;;2.30;;
22652;SDS011;11493;43.344;26.226;2022-09-03T08:05:22;3.63;;;2.38;;
22652;SDS011;11493;43.344;26.226;2022-09-03T08:07:49;2.72;;;2.10;;
22652;SDS011;11493;43.344;26.226;2022-09-03T08:10:17;3.63;;;2.03;;
22652;SDS011;11493;43.344;26.226;2022-09-03T08:12:44;2.75;;;2.40;;
22652;SDS011;11493;43.344;26.226;2022-09-03T08:15:12;3.17;;;2.10;;
22652;SDS011;11493;43.344;26.226;2022-09-03T08:17:42;3.08;;;2.63;;
22652;SDS011;11493;43.344;26.226;2022-09-03T08:20:10;3.20;;;2.90;;
22652;SDS011;11493;43.344;26.226;2022-09-03T08:22:38;3.90;;;2.80;;
22652;SDS011;11493;43.344;26.226;2022-09-03T08:25:05;2.45;;;2.25;;
22652;SDS011;11493;43.344;26.226;2022-09-03T08:27:39;3.42;;;2.55;;
22652;SDS011;11493;43.344;26.226;2022-09-03T08:30:06;3.50;;;2.60;;
22652;SDS011;11493;43.344;26.226;2022-09-03T08:32:37;3.13;;;2.22;;
22652;SDS011;11493;43.344;26.226;2022-09-03T08:35:05;4.28;;;2.92;;
22652;SDS011;11493;43.344;26.226;2022-09-03T08:37:35;2.63;;;2.42;;
22652;SDS011;11493;43.344;26.226;2022-09-03T08:40:02;2.45;;;2.25;;
22652;SDS011;11493;43.344;26.226;2022-09-03T08:42:40;3.80;;;3.00;;
22652;SDS011;11493;43.344;26.226;2022-09-03T08:45:23;3.22;;;2.92;;
22652;SDS011;11493;43.344;26.226;2022-09-03T08:50:42;3.25;;;2.95;;
22652;SDS011;11493;43.344;26.226;2022-09-03T08:53:21;3.95;;;3.20;;
22652;SDS011;11493;43.344;26.226;2022-09-03T08:55:58;2.75;;;2.55;;
22652;SDS011;11493;43.344;26.226;2022-09-03T08:58:30;3.50;;;3.15;;
22652;SDS011;11493;43.344;26.226;2022-09-03T09:01:05;4.00;;;3.10;;
22652;SDS011;11493;43.344;26.226;2022-09-03T09:06:42;4.05;;;3.03;;
22652;SDS011;11493;43.344;26.226;2022-09-03T09:09:31;6.82;;;3.10;;
22652;SDS011;11493;43.344;26.226;2022-09-03T09:22:54;3.85;;;3.55;;
22652;SDS011;11493;43.344;26.226;2022-09-03T09:25:27;3.95;;;3.53;;
22652;SDS011;11493;43.344;26.226;2022-09-03T09:27:58;3.88;;;3.58;;
22652;SDS011;11493;43.344;26.226;2022-09-03T09:30:28;4.78;;;3.95;;
22652;SDS011;11493;43.344;26.226;2022-09-03T09:32:58;4.07;;;3.78;;
22652;SDS011;11493;43.344;26.226;2022-09-03T09:35:26;4.18;;;3.88;;
22652;SDS011;11493;43.344;26.226;2022-09-03T09:37:55;4.40;;;4.00;;
22652;SDS011;11493;43.344;26.226;2022-09-03T09:40:28;5.55;;;4.00;;
22652;SDS011;11493;43.344;26.226;2022-09-03T09:43:09;4.43;;;4.07;;
22652;SDS011;11493;43.344;26.226;2022-09-03T09:45:38;6.72;;;3.92;;
22652;SDS011;11493;43.344;26.226;2022-09-03T09:48:29;4.70;;;4.30;;
22652;SDS011;11493;43.344;26.226;2022-09-03T09:51:08;4.25;;;3.90;;
22652;SDS011;11493;43.344;26.226;2022-09-03T09:53:38;7.05;;;4.55;;
22652;SDS011;11493;43.344;26.226;2022-09-03T09:56:07;4.38;;;3.97;;
22652;SDS011;11493;43.344;26.226;2022-09-03T09:58:34;5.15;;;4.03;;
22652;SDS011;11493;43.344;26.226;2022-09-03T10:03:40;8.02;;;4.28;;
22652;SDS011;11493;43.344;26.226;2022-09-03T10:06:23;5.53;;;4.30;;
22652;SDS011;11493;43.344;26.226;2022-09-03T10:09:16;6.53;;;4.68;;
22652;SDS011;11493;43.344;26.226;2022-09-03T10:12:31;5.00;;;3.95;;
22652;SDS011;11493;43.344;26.226;2022-09-03T10:23:09;5.78;;;5.38;;
22652;SDS011;11493;43.344;26.226;2022-09-03T10:28:28;13.15;;;5.63;;
22652;SDS011;11493;43.344;26.226;2022-09-03T10:34:09;9.00;;;6.30;;
22652;SDS011;11493;43.344;26.226;2022-09-03T10:36:51;6.53;;;5.82;;
22652;SDS011;11493;43.344;26.226;2022-09-03T10:56:12;9.40;;;7.32;;
22652;SDS011;11493;43.344;26.226;2022-09-03T11:01:43;8.55;;;7.60;;
22652;SDS011;11493;43.344;26.226;2022-09-03T11:04:42;7.85;;;6.50;;
22652;SDS011;11493;43.344;26.226;2022-09-03T11:07:20;11.27;;;7.63;;
22652;SDS011;11493;43.344;26.226;2022-09-03T11:12:22;9.20;;;7.95;;
22652;SDS011;11493;43.344;26.226;2022-09-03T11:14:58;8.75;;;7.65;;
22652;SDS011;11493;43.344;26.226;2022-09-03T11:17:39;7.90;;;7.18;;
22652;SDS011;11493;43.344;26.226;2022-09-03T11:20:20;10.75;;;7.97;;
22652;SDS011;11493;43.344;26.226;2022-09-03T11:22:50;8.77;;;8.07;;
22652;SDS011;11493;43.344;26.226;2022-09-03T11:25:30;9.85;;;8.88;;
22652;SDS011;11493;43.344;26.226;2022-09-03T11:28:22;11.45;;;9.35;;
22652;SDS011;11493;43.344;26.226;2022-09-03T11:33:49;11.07;;;9.48;;
22652;SDS011;11493;43.344;26.226;2022-09-03T11:36:23;15.32;;;10.52;;
22652;SDS011;11493;43.344;26.226;2022-09-03T11:38:57;11.52;;;9.02;;
22652;SDS011;11493;43.344;26.226;2022-09-03T11:41:27;12.60;;;9.68;;
22652;SDS011;11493;43.344;26.226;2022-09-03T11:44:15;14.90;;;7.72;;
22652;SDS011;11493;43.344;26.226;2022-09-03T11:46:57;8.55;;;7.40;;
22652;SDS011;11493;43.344;26.226;2022-09-03T11:49:29;8.20;;;7.32;;
22652;SDS011;11493;43.344;26.226;2022-09-03T11:51:59;9.15;;;7.13;;
22652;SDS011;11493;43.344;26.226;2022-09-03T11:54:32;7.75;;;6.97;;
22652;SDS011;11493;43.344;26.226;2022-09-03T11:57:13;8.60;;;7.70;;
22652;SDS011;11493;43.344;26.226;2022-09-03T11:59:47;8.90;;;7.00;;
22652;SDS011;11493;43.344;26.226;2022-09-03T12:02:28;8.77;;;6.20;;
22652;SDS011;11493;43.344;26.226;2022-09-03T12:10:35;9.15;;;8.25;;
22652;SDS011;11493;43.344;26.226;2022-09-03T12:13:28;9.80;;;7.85;;
22652;SDS011;11493;43.344;26.226;2022-09-03T12:19:20;7.95;;;7.20;;
22652;SDS011;11493;43.344;26.226;2022-09-03T12:21:57;6.93;;;6.25;;
22652;SDS011;11493;43.344;26.226;2022-09-03T12:24:25;7.15;;;6.50;;
22652;SDS011;11493;43.344;26.226;2022-09-03T12:27:02;7.78;;;7.18;;
22652;SDS011;11493;43.344;26.226;2022-09-03T12:29:30;7.97;;;7.22;;
22652;SDS011;11493;43.344;26.226;2022-09-03T12:32:07;8.25;;;7.53;;
22652;SDS011;11493;43.344;26.226;2022-09-03T12:34:39;8.73;;;7.90;;
22652;SDS011;11493;43.344;26.226;2022-09-03T12:37:16;11.20;;;8.05;;
22652;SDS011;11493;43.344;26.226;2022-09-03T12:40:14;8.13;;;7.43;;
22652;SDS011;11493;43.344;26.226;2022-09-03T12:42:43;11.05;;;8.45;;
22652;SDS011;11493;43.344;26.226;2022-09-03T12:45:11;11.68;;;8.93;;
22652;SDS011;11493;43.344;26.226;2022-09-03T12:47:42;10.10;;;9.17;;
22652;SDS011;11493;43.344;26.226;2022-09-03T12:50:13;12.43;;;9.38;;
22652;SDS011;11493;43.344;26.226;2022-09-03T12:52:53;11.75;;;9.07;;
22652;SDS011;11493;43.344;26.226;2022-09-03T12:58:04;11.48;;;8.20;;
22652;SDS011;11493;43.344;26.226;2022-09-03T13:00:48;9.60;;;8.35;;
22652;SDS011;11493;43.344;26.226;2022-09-03T13:06:14;9.93;;;8.30;;
22652;SDS011;11493;43.344;26.226;2022-09-03T13:08:51;11.27;;;8.43;;
22652;SDS011;11493;43.344;26.226;2022-09-03T13:11:23;8.23;;;7.53;;
22652;SDS011;11493;43.344;26.226;2022-09-03T13:13:59;9.02;;;8.13;;
22652;SDS011;11493;43.344;26.226;2022-09-03T13:24:55;9.15;;;6.95;;
22652;SDS011;11493;43.344;26.226;2022-09-03T13:30:28;8.25;;;6.57;;
22652;SDS011;11493;43.344;26.226;2022-09-03T13:33:22;8.60;;;6.00;;
22652;SDS011;11493;43.344;26.226;2022-09-03T13:36:15;9.10;;;7.13;;
22652;SDS011;11493;43.344;26.226;2022-09-03T13:46:56;5.30;;;4.82;;
22652;SDS011;11493;43.344;26.226;2022-09-03T13:52:40;7.88;;;5.88;;
22652;SDS011;11493;43.344;26.226;2022-09-03T14:00:42;5.57;;;4.72;;
22652;SDS011;11493;43.344;26.226;2022-09-03T14:11:51;5.07;;;4.20;;
22652;SDS011;11493;43.344;26.226;2022-09-03T14:25:36;4.23;;;3.83;;
22652;SDS011;11493;43.344;26.226;2022-09-03T14:28:14;4.30;;;3.90;;
22652;SDS011;11493;43.344;26.226;2022-09-03T14:36:25;4.35;;;3.45;;
22652;SDS011;11493;43.344;26.226;2022-09-03T14:39:10;4.63;;;4.18;;
22652;SDS011;11493;43.344;26.226;2022-09-03T14:44:33;5.03;;;3.72;;
22652;SDS011;11493;43.344;26.226;2022-09-03T14:47:26;4.03;;;3.55;;
22652;SDS011;11493;43.344;26.226;2022-09-03T14:50:27;7.03;;;4.75;;
22652;SDS011;11493;43.344;26.226;2022-09-03T14:53:15;7.10;;;4.75;;
22652;SDS011;11493;43.344;26.226;2022-09-03T15:01:36;6.15;;;4.25;;
22652;SDS011;11493;43.344;26.226;2022-09-03T15:12:36;3.60;;;3.30;;
22652;SDS011;11493;43.344;26.226;2022-09-03T15:15:43;3.83;;;3.42;;
22652;SDS011;11493;43.344;26.226;2022-09-03T15:27:02;5.00;;;3.85;;
22652;SDS011;11493;43.344;26.226;2022-09-03T15:29:51;5.80;;;3.65;;
22652;SDS011;11493;43.344;26.226;2022-09-03T15:37:47;4.78;;;4.25;;
22652;SDS011;11493;43.344;26.226;2022-09-03T15:42:57;4.80;;;4.40;;
22652;SDS011;11493;43.344;26.226;2022-09-03T15:53:59;5.85;;;5.35;;
22652;SDS011;11493;43.344;26.226;2022-09-03T16:08:02;5.80;;;5.20;;
22652;SDS011;11493;43.344;26.226;2022-09-03T16:17:01;7.13;;;6.40;;
22652;SDS011;11493;43.344;26.226;2022-09-03T16:19:13;12.88;;;8.27;;
22652;SDS011;11493;43.344;26.226;2022-09-03T16:22:26;10.23;;;9.20;;
22652;SDS011;11493;43.344;26.226;2022-09-03T16:25:07;11.07;;;9.90;;
22652;SDS011;11493;43.344;26.226;2022-09-03T16:27:59;14.40;;;10.43;;
22652;SDS011;11493;43.344;26.226;2022-09-03T16:36:20;13.95;;;10.52;;
22652;SDS011;11493;43.344;26.226;2022-09-03T16:41:49;11.07;;;9.93;;
22652;SDS011;11493;43.344;26.226;2022-09-03T16:50:24;17.30;;;11.18;;
22652;SDS011;11493;43.344;26.226;2022-09-03T16:53:01;15.20;;;10.68;;
22652;SDS011;11493;43.344;26.226;2022-09-03T17:15:07;11.35;;;9.63;;
22652;SDS011;11493;43.344;26.226;2022-09-03T17:18:18;10.10;;;9.18;;
22652;SDS011;11493;43.344;26.226;2022-09-03T17:24:19;13.98;;;8.95;;
22652;SDS011;11493;43.344;26.226;2022-09-03T17:38:02;11.40;;;8.05;;
22652;SDS011;11493;43.344;26.226;2022-09-03T17:48:59;11.98;;;9.48;;
22652;SDS011;11493;43.344;26.226;2022-09-03T17:51:38;12.98;;;9.00;;
22652;SDS011;11493;43.344;26.226;2022-09-03T18:22:25;9.02;;;6.30;;
22652;SDS011;11493;43.344;26.226;2022-09-03T18:25:18;9.18;;;7.45;;
22652;SDS011;11493;43.344;26.226;2022-09-03T18:31:02;11.13;;;6.25;;
22652;SDS011;11493;43.344;26.226;2022-09-03T18:33:48;8.65;;;7.80;;
22652;SDS011;11493;43.344;26.226;2022-09-03T18:36:34;8.63;;;6.53;;
22652;SDS011;11493;43.344;26.226;2022-09-03T18:39:27;8.00;;;7.32;;
22652;SDS011;11493;43.344;26.226;2022-09-03T18:58:01;11.32;;;7.10;;
22652;SDS011;11493;43.344;26.226;2022-09-03T19:01:13;6.97;;;6.28;;
22652;SDS011;11493;43.344;26.226;2022-09-03T19:11:08;6.47;;;5.88;;
22652;SDS011;11493;43.344;26.226;2022-09-03T19:13:59;9.20;;;5.47;;
22652;SDS011;11493;43.344;26.226;2022-09-03T19:23:04;4.90;;;4.40;;
22652;SDS011;11493;43.344;26.226;2022-09-03T19:25:50;5.80;;;4.30;;
22652;SDS011;11493;43.344;26.226;2022-09-03T19:28:40;4.47;;;4.07;;
22652;SDS011;11493;43.344;26.226;2022-09-03T19:37:31;4.97;;;4.47;;
22652;SDS011;11493;43.344;26.226;2022-09-03T19:40:35;4.22;;;3.85;;
22652;SDS011;11493;43.344;26.226;2022-09-03T19:46:44;5.22;;;4.60;;
22652;SDS011;11493;43.344;26.226;2022-09-03T19:53:12;4.68;;;4.32;;
22652;SDS011;11493;43.344;26.226;2022-09-03T19:56:09;5.65;;;3.92;;
22652;SDS011;11493;43.344;26.226;2022-09-03T19:59:20;4.95;;;4.45;;
22652;SDS011;11493;43.344;26.226;2022-09-03T20:02:10;5.82;;;4.05;;
22652;SDS011;11493;43.344;26.226;2022-09-03T20:05:00;4.72;;;3.92;;
22652;SDS011;11493;43.344;26.226;2022-09-03T20:07:49;3.55;;;3.33;;
22652;SDS011;11493;43.344;26.226;2022-09-03T20:10:37;7.00;;;4.18;;
22652;SDS011;11493;43.344;26.226;2022-09-03T20:13:12;4.22;;;3.67;;
22652;SDS011;11493;43.344;26.226;2022-09-03T20:18:47;5.22;;;4.18;;
22652;SDS011;11493;43.344;26.226;2022-09-03T20:21:34;5.38;;;3.78;;
22652;SDS011;11493;43.344;26.226;2022-09-03T20:30:12;6.32;;;4.53;;
22652;SDS011;11493;43.344;26.226;2022-09-03T20:44:13;4.70;;;4.30;;
22652;SDS011;11493;43.344;26.226;2022-09-03T20:47:07;6.85;;;3.90;;
22652;SDS011;11493;43.344;26.226;2022-09-03T20:55:57;6.80;;;4.35;;
22652;SDS011;11493;43.344;26.226;2022-09-03T21:01:58;4.45;;;4.07;;
22652;SDS011;11493;43.344;26.226;2022-09-03T21:13:11;4.22;;;3.88;;
22652;SDS011;11493;43.344;26.226;2022-09-03T21:18:28;4.40;;;4.00;;
22652;SDS011;11493;43.344;26.226;2022-09-03T21:21:20;5.18;;;4.47;;
22652;SDS011;11493;43.344;26.226;2022-09-03T21:26:58;4.45;;;4.05;;
22652;SDS011;11493;43.344;26.226;2022-09-03T21:32:40;4.25;;;3.92;;
22652;SDS011;11493;43.344;26.226;2022-09-03T21:35:24;4.38;;;4.07;;
22652;SDS011;11493;43.344;26.226;2022-09-03T21:40:34;6.70;;;3.83;;
22652;SDS011;11493;43.344;26.226;2022-09-03T21:45:58;6.13;;;4.20;;
22652;SDS011;11493;43.344;26.226;2022-09-03T21:48:58;4.10;;;3.80;;
22652;SDS011;11493;43.344;26.226;2022-09-03T21:54:07;2.78;;;2.08;;
22652;SDS011;11493;43.344;26.226;2022-09-03T21:59:44;2.95;;;1.50;;
22652;SDS011;11493;43.344;26.226;2022-09-03T22:02:38;1.40;;;1.30;;
22652;SDS011;11493;43.344;26.226;2022-09-03T22:05:06;3.03;;;1.63;;
22652;SDS011;11493;43.344;26.226;2022-09-03T22:15:20;2.08;;;1.40;;
22652;SDS011;11493;43.344;26.226;2022-09-03T22:20:24;2.00;;;1.30;;
22652;SDS011;11493;43.344;26.226;2022-09-03T22:31:18;1.38;;;1.27;;
22652;SDS011;11493;43.344;26.226;2022-09-03T22:36:56;2.90;;;1.27;;
22652;SDS011;11493;43.344;26.226;2022-09-03T22:39:33;1.58;;;1.30;;
22652;SDS011;11493;43.344;26.226;2022-09-03T22:55:44;2.83;;;1.27;;
22652;SDS011;11493;43.344;26.226;2022-09-03T22:58:20;2.53;;;1.55;;
22652;SDS011;11493;43.344;26.226;2022-09-03T23:01:06;2.95;;;1.45;;
22652;SDS011;11493;43.344;26.226;2022-09-03T23:03:53;4.38;;;1.50;;
22652;SDS011;11493;43.344;26.226;2022-09-03T23:06:28;4.30;;;1.50;;
22652;SDS011;11493;43.344;26.226;2022-09-03T23:09:04;1.75;;;1.17;;
22652;SDS011;11493;43.344;26.226;2022-09-03T23:14:06;1.50;;;1.40;;
22652;SDS011;11493;43.344;26.226;2022-09-03T23:16:37;3.33;;;1.52;;
22652;SDS011;11493;43.344;26.226;2022-09-03T23:19:15;3.40;;;1.20;;
22652;SDS011;11493;43.344;26.226;2022-09-03T23:21:56;1.40;;;1.30;;
22652;SDS011;11493;43.344;26.226;2022-09-03T23:25:12;1.60;;;1.30;;
22652;SDS011;11493;43.344;26.226;2022-09-03T23:27:24;1.77;;;1.38;;
22652;SDS011;11493;43.344;26.226;2022-09-03T23:29:58;1.35;;;1.20;;
22652;SDS011;11493;43.344;26.226;2022-09-03T23:32:29;1.25;;;1.15;;
22652;SDS011;11493;43.344;26.226;2022-09-03T23:35:00;2.20;;;1.23;;